Time;durP1;ratioP1;P1;durP2;ratioP2;P2;SDS_P1;SDS_P2;PMS_P1;PMS_P2;Temp;Humidity;BMP_temperature;BMP_pressure;BME280_temperature;BME280_humidity;BME280_pressure;Samples;Min_cycle;Max_cycle;Signal;HPM_P1;HPM_P2
2022/10/12 00:01:30;;;;;;;24.70;15.82;;;5.10;99.90;;;;;;5055703;28;20127;-25
2022/10/12 00:03:55;;;;;;;20.95;12.30;;;5.20;99.90;;;;;;5055767;28;20049;-26
2022/10/12 00:06:23;;;;;;;21.10;11.38;;;5.20;99.90;;;;;;5056895;28;20060;-26
2022/10/12 00:08:51;;;;;;;21.52;12.75;;;5.40;99.90;;;;;;5057663;28;20129;-26
2022/10/12 00:11:25;;;;;;;23.27;13.10;;;5.30;99.90;;;;;;5056800;28;20048;-26
2022/10/12 00:13:52;;;;;;;27.15;13.27;;;5.40;99.90;;;;;;5056798;28;20053;-26
2022/10/12 00:16:20;;;;;;;24.65;11.60;;;5.40;99.90;;;;;;5056718;28;20048;-25
2022/10/12 00:18:56;;;;;;;23.88;12.82;;;5.40;99.90;;;;;;5055396;28;20091;-26
2022/10/12 00:21:23;;;;;;;22.50;12.13;;;5.30;99.90;;;;;;5056578;28;20049;-25
2022/10/12 00:23:49;;;;;;;25.45;12.32;;;5.30;99.90;;;;;;5056568;28;20060;-25
2022/10/12 00:26:18;;;;;;;28.52;12.57;;;5.30;99.90;;;;;;5057104;28;20051;-26
2022/10/12 00:28:44;;;;;;;30.33;12.88;;;5.20;99.90;;;;;;5056480;28;20048;-26
2022/10/12 00:31:13;;;;;;;23.38;11.40;;;5.20;99.90;;;;;;5056321;28;20090;-25
2022/10/12 00:33:39;;;;;;;21.92;11.52;;;5.20;99.90;;;;;;5056416;28;20040;-26
2022/10/12 00:36:31;;;;;;;21.45;12.23;;;5.10;99.90;;;;;;5055161;28;20506;-25
2022/10/12 00:38:57;;;;;;;18.50;11.93;;;5.10;99.90;;;;;;5056620;28;20099;-25
2022/10/12 00:41:26;;;;;;;22.63;11.27;;;5.10;99.90;;;;;;5055225;28;20479;-25
2022/10/12 00:43:53;;;;;;;22.30;12.68;;;5.00;99.90;;;;;;5056183;28;20398;-26
2022/10/12 00:46:41;;;;;;;27.00;12.50;;;5.00;99.90;;;;;;5055757;28;20067;-25
2022/10/12 00:49:19;;;;;;;26.80;14.05;;;5.00;99.90;;;;;;5056128;28;20041;-25
2022/10/12 00:51:51;;;;;;;29.23;15.00;;;4.90;99.90;;;;;;5056549;28;20138;-25
2022/10/12 00:54:22;;;;;;;29.52;14.23;;;5.00;99.90;;;;;;5056609;28;20372;-25
2022/10/12 00:56:51;;;;;;;23.23;12.55;;;5.00;99.90;;;;;;5055871;28;20052;-25
2022/10/12 00:59:33;;;;;;;27.70;13.77;;;5.00;99.90;;;;;;5055640;28;20495;-25
2022/10/12 01:01:59;;;;;;;35.50;14.90;;;5.10;99.90;;;;;;5054663;28;20040;-25
2022/10/12 01:04:25;;;;;;;29.83;13.32;;;5.10;99.90;;;;;;5055771;28;20045;-25
2022/10/12 01:06:51;;;;;;;27.17;13.63;;;5.10;99.90;;;;;;5055329;28;20431;-25
2022/10/12 01:09:18;;;;;;;24.35;13.68;;;5.10;99.90;;;;;;5055702;28;20050;-26
2022/10/12 01:11:44;;;;;;;23.90;13.27;;;5.10;99.90;;;;;;5055375;28;20056;-26
2022/10/12 01:14:10;;;;;;;21.95;12.65;;;5.20;99.90;;;;;;5055632;28;20052;-25
2022/10/12 01:17:04;;;;;;;23.23;11.57;;;5.20;99.90;;;;;;5055902;28;20486;-25
2022/10/12 01:20:14;;;;;;;34.78;15.18;;;5.20;99.90;;;;;;5054877;28;20053;-26
2022/10/12 01:22:48;;;;;;;22.65;13.60;;;5.10;99.90;;;;;;5036052;28;20483;-26
2022/10/12 01:25:16;;;;;;;24.55;14.25;;;5.10;99.90;;;;;;5055701;28;20510;-25
2022/10/12 01:27:50;;;;;;;30.02;13.35;;;5.10;99.90;;;;;;5055348;28;20138;-26
2022/10/12 01:30:29;;;;;;;28.33;13.93;;;5.10;99.90;;;;;;5038693;28;20048;-25
2022/10/12 01:33:07;;;;;;;22.20;12.63;;;5.10;99.90;;;;;;5056083;28;20138;-25
2022/10/12 01:35:52;;;;;;;20.60;11.32;;;5.10;99.90;;;;;;5055313;28;20049;-25
2022/10/12 01:38:37;;;;;;;18.88;11.40;;;5.10;99.90;;;;;;5054174;28;20052;-25
2022/10/12 01:41:27;;;;;;;27.85;11.05;;;5.10;99.90;;;;;;5055110;28;20053;-25
2022/10/12 01:43:53;;;;;;;27.30;13.48;;;5.10;99.90;;;;;;5055370;28;20483;-25
2022/10/12 01:46:19;;;;;;;26.13;12.57;;;5.10;99.90;;;;;;5055368;28;20106;-26
2022/10/12 01:48:47;;;;;;;25.45;11.45;;;5.10;99.90;;;;;;5054946;28;20132;-26
2022/10/12 01:52:09;;;;;;;24.00;13.80;;;5.10;99.90;;;;;;5054829;28;20045;-25
2022/10/12 01:54:56;;;;;;;18.75;10.57;;;5.10;99.90;;;;;;5053696;28;20040;-26
2022/10/12 01:57:52;;;;;;;27.33;11.98;;;5.20;99.90;;;;;;5054941;28;20045;-25
2022/10/12 02:00:18;;;;;;;18.02;9.85;;;5.30;99.90;;;;;;5055368;28;20402;-25
2022/10/12 02:02:44;;;;;;;20.35;9.75;;;5.30;99.90;;;;;;5053465;28;20051;-25
2022/10/12 02:05:21;;;;;;;16.73;10.20;;;5.40;99.90;;;;;;5054615;28;20064;-25
2022/10/12 02:08:22;;;;;;;20.65;10.30;;;5.40;99.90;;;;;;5054969;28;20044;-24
2022/10/12 02:10:54;;;;;;;24.58;10.63;;;5.40;99.90;;;;;;5053917;28;20049;-24
2022/10/12 02:13:22;;;;;;;29.20;11.80;;;5.50;99.90;;;;;;5054070;28;20088;-24
2022/10/12 02:15:50;;;;;;;23.75;9.73;;;5.50;99.90;;;;;;5054443;28;20088;-26
2022/10/12 02:18:18;;;;;;;24.52;12.70;;;5.50;99.90;;;;;;5053436;28;20444;-24
2022/10/12 02:20:47;;;;;;;21.20;9.25;;;5.60;99.90;;;;;;5055184;28;20041;-24
2022/10/12 02:23:14;;;;;;;26.80;12.50;;;5.60;99.90;;;;;;5054353;28;20044;-25
2022/10/12 02:25:40;;;;;;;22.00;10.30;;;5.60;99.90;;;;;;5053331;28;20111;-24
2022/10/12 02:28:10;;;;;;;17.42;9.38;;;5.60;99.90;;;;;;5053305;28;20051;-25
2022/10/12 02:30:55;;;;;;;27.08;9.80;;;5.60;99.90;;;;;;5054176;28;20049;-25
2022/10/12 02:33:28;;;;;;;26.00;9.88;;;5.60;99.90;;;;;;5054799;28;20123;-26
2022/10/12 02:36:04;;;;;;;18.77;9.00;;;5.60;99.90;;;;;;5055005;28;20049;-25
2022/10/12 02:38:41;;;;;;;19.77;9.32;;;5.60;99.90;;;;;;5037350;28;20540;-26
2022/10/12 02:41:15;;;;;;;26.65;10.77;;;5.50;99.90;;;;;;5054637;28;20099;-24
2022/10/12 02:43:43;;;;;;;23.98;8.48;;;5.50;99.90;;;;;;5054039;28;20048;-24
2022/10/12 02:46:10;;;;;;;18.98;8.85;;;5.50;99.90;;;;;;5052555;28;20096;-24
2022/10/12 02:48:39;;;;;;;24.65;8.90;;;5.40;99.90;;;;;;5053869;28;20049;-24
2022/10/12 02:51:06;;;;;;;22.83;9.05;;;5.40;99.90;;;;;;5053787;28;20048;-26
2022/10/12 02:53:33;;;;;;;22.50;7.47;;;5.30;99.90;;;;;;5036265;28;20182;-25
2022/10/12 02:56:01;;;;;;;19.95;9.18;;;5.20;99.90;;;;;;5054347;28;20383;-25
2022/10/12 02:58:27;;;;;;;33.38;11.25;;;5.20;99.90;;;;;;5053889;28;20114;-24
2022/10/12 03:00:53;;;;;;;21.33;9.27;;;5.20;99.90;;;;;;5052460;28;20048;-24
2022/10/12 03:03:18;;;;;;;19.02;8.75;;;5.10;99.90;;;;;;5053695;28;20059;-25
2022/10/12 03:05:44;;;;;;;19.17;8.48;;;5.10;99.90;;;;;;5052961;28;20045;-25
2022/10/12 03:08:10;;;;;;;20.48;8.27;;;5.10;99.90;;;;;;5053609;28;20049;-25
2022/10/12 03:10:36;;;;;;;17.08;7.57;;;5.00;99.90;;;;;;5054449;28;20048;-25
2022/10/12 03:13:02;;;;;;;16.77;7.18;;;5.00;99.90;;;;;;5052323;28;20446;-25
2022/10/12 03:15:28;;;;;;;19.88;8.98;;;4.90;99.90;;;;;;5054126;28;20049;-26
2022/10/12 03:17:53;;;;;;;19.85;8.75;;;4.90;99.90;;;;;;5053527;28;20475;-25
2022/10/12 03:20:19;;;;;;;17.52;6.85;;;4.90;99.90;;;;;;5053795;28;20075;-25
2022/10/12 03:22:45;;;;;;;16.98;7.47;;;4.90;99.90;;;;;;5052249;28;20394;-26
2022/10/12 03:25:11;;;;;;;15.52;7.03;;;4.80;99.90;;;;;;5052566;28;20049;-25
2022/10/12 03:27:36;;;;;;;19.25;8.80;;;4.70;99.90;;;;;;5056675;28;20106;-25
2022/10/12 03:30:03;;;;;;;15.13;7.47;;;4.70;99.90;;;;;;5057589;28;20475;-26
2022/10/12 03:32:29;;;;;;;12.43;5.75;;;4.60;99.90;;;;;;5056309;28;20072;-25
2022/10/12 03:34:55;;;;;;;15.05;6.75;;;4.60;99.90;;;;;;5057484;28;20070;-25
2022/10/12 03:37:21;;;;;;;14.25;7.93;;;4.60;99.90;;;;;;5057512;28;20131;-25
2022/10/12 03:39:47;;;;;;;15.95;6.90;;;4.60;99.90;;;;;;5056715;28;20183;-24
2022/10/12 03:42:12;;;;;;;22.63;8.38;;;4.70;99.90;;;;;;5057905;28;20045;-25
2022/10/12 03:44:38;;;;;;;18.25;8.48;;;4.60;99.90;;;;;;5057041;28;20127;-25
2022/10/12 03:47:04;;;;;;;20.50;7.70;;;4.70;99.90;;;;;;5056614;28;20053;-25
2022/10/12 03:49:29;;;;;;;24.33;9.60;;;4.70;99.90;;;;;;5057192;28;20044;-25
2022/10/12 03:51:55;;;;;;;16.60;8.15;;;4.90;99.90;;;;;;5057680;28;20045;-25
2022/10/12 03:54:21;;;;;;;17.13;7.90;;;4.80;99.90;;;;;;5056792;28;20451;-25
2022/10/12 03:56:46;;;;;;;20.95;9.60;;;4.90;99.90;;;;;;5056879;28;20053;-25
2022/10/12 03:59:12;;;;;;;19.38;8.20;;;4.80;99.90;;;;;;5057070;28;20045;-24
2022/10/12 04:01:38;;;;;;;22.10;7.63;;;4.90;99.90;;;;;;5056997;28;20124;-26
2022/10/12 04:04:04;;;;;;;18.63;8.45;;;4.90;99.90;;;;;;5056964;28;20095;-25
2022/10/12 04:06:29;;;;;;;19.08;7.70;;;4.90;99.90;;;;;;5056927;28;20491;-25
2022/10/12 04:08:55;;;;;;;19.52;8.68;;;4.80;99.90;;;;;;5057416;28;20037;-25
2022/10/12 04:11:21;;;;;;;16.20;7.80;;;4.90;99.90;;;;;;5056783;28;20102;-25
2022/10/12 04:13:46;;;;;;;22.48;10.07;;;4.80;99.90;;;;;;5055794;28;20053;-24
2022/10/12 04:16:13;;;;;;;22.25;9.00;;;4.80;99.90;;;;;;5057297;28;20045;-26
2022/10/12 04:18:38;;;;;;;21.42;7.30;;;4.70;99.90;;;;;;5056696;28;20048;-24
2022/10/12 04:21:09;;;;;;;21.52;8.80;;;4.70;99.90;;;;;;5056643;28;20128;-25
2022/10/12 04:23:35;;;;;;;21.27;8.68;;;4.70;99.90;;;;;;5056628;28;20059;-24
2022/10/12 04:26:00;;;;;;;24.20;9.65;;;4.70;99.90;;;;;;5056570;28;20048;-26
2022/10/12 04:28:26;;;;;;;15.73;8.50;;;4.70;99.90;;;;;;5057593;28;20190;-25
2022/10/12 04:30:52;;;;;;;23.15;9.07;;;4.70;99.90;;;;;;5056714;28;20466;-25
2022/10/12 04:33:17;;;;;;;19.13;9.48;;;4.70;99.90;;;;;;5056367;28;20372;-24
2022/10/12 04:35:43;;;;;;;23.95;9.13;;;4.70;99.90;;;;;;5038664;28;20048;-26
2022/10/12 04:38:09;;;;;;;20.02;9.73;;;4.60;99.90;;;;;;5056060;28;20132;-25
2022/10/12 04:40:34;;;;;;;18.75;9.70;;;4.60;99.90;;;;;;5056296;28;20043;-25
2022/10/12 04:43:00;;;;;;;24.70;10.02;;;4.60;99.90;;;;;;5056806;28;20063;-25
2022/10/12 04:45:26;;;;;;;29.88;11.57;;;4.60;99.90;;;;;;5054848;28;20061;-24
2022/10/12 04:47:51;;;;;;;18.17;8.90;;;4.60;99.90;;;;;;5056156;28;20055;-24
2022/10/12 04:50:17;;;;;;;24.90;10.05;;;4.60;99.90;;;;;;5056050;28;20040;-24
2022/10/12 04:52:43;;;;;;;20.08;8.35;;;4.60;99.90;;;;;;5055784;28;20037;-25
2022/10/12 04:55:08;;;;;;;17.48;7.95;;;4.60;99.90;;;;;;5055963;28;20059;-25
2022/10/12 04:57:34;;;;;;;15.50;7.70;;;4.60;99.90;;;;;;5055828;28;20049;-25
2022/10/12 05:00:00;;;;;;;21.98;8.77;;;4.60;99.90;;;;;;5055880;28;20139;-25
2022/10/12 05:02:25;;;;;;;21.77;9.40;;;4.50;99.90;;;;;;5055810;28;20048;-25
2022/10/12 05:04:51;;;;;;;23.27;10.90;;;4.50;99.90;;;;;;5055826;28;20044;-24
2022/10/12 05:07:17;;;;;;;23.65;10.10;;;4.50;99.90;;;;;;5055783;28;20182;-25
2022/10/12 05:09:42;;;;;;;24.27;9.55;;;4.50;99.90;;;;;;5055711;28;20041;-25
2022/10/12 05:12:08;;;;;;;19.48;9.55;;;4.40;99.90;;;;;;5038084;28;20076;-25
2022/10/12 05:14:34;;;;;;;19.13;10.43;;;4.40;99.90;;;;;;5055670;28;20049;-25
2022/10/12 05:17:00;;;;;;;22.45;10.02;;;4.50;99.90;;;;;;5055611;28;20453;-24
2022/10/12 05:19:25;;;;;;;20.80;11.20;;;4.50;99.90;;;;;;5055420;28;20468;-24
2022/10/12 05:21:53;;;;;;;23.65;10.68;;;4.40;99.90;;;;;;5055550;28;20063;-24
2022/10/12 05:24:19;;;;;;;22.00;10.75;;;4.50;99.90;;;;;;5056034;28;20434;-25
2022/10/12 05:26:44;;;;;;;27.73;11.02;;;4.40;99.90;;;;;;5055426;28;20103;-24
2022/10/12 05:29:10;;;;;;;21.23;10.70;;;4.40;99.90;;;;;;5055386;28;20076;-24
2022/10/12 05:31:36;;;;;;;26.90;10.35;;;4.50;99.90;;;;;;5054036;28;20040;-25
2022/10/12 05:34:02;;;;;;;20.05;9.93;;;4.50;99.90;;;;;;5054282;28;20047;-24
2022/10/12 05:36:27;;;;;;;34.08;12.07;;;4.50;99.90;;;;;;5055202;28;20087;-25
2022/10/12 05:38:53;;;;;;;27.10;11.63;;;4.50;99.90;;;;;;5037669;28;20060;-24
2022/10/12 05:41:19;;;;;;;26.40;12.02;;;4.50;99.90;;;;;;5055075;28;20041;-24
2022/10/12 05:43:44;;;;;;;19.15;11.50;;;4.50;99.90;;;;;;5053972;28;20049;-24
2022/10/12 05:46:10;;;;;;;20.05;11.45;;;4.60;99.90;;;;;;5055259;28;20052;-25
2022/10/12 05:48:36;;;;;;;28.83;11.82;;;4.70;99.90;;;;;;5054269;28;20084;-24
2022/10/12 05:51:02;;;;;;;25.75;12.50;;;4.60;99.90;;;;;;5038259;28;20084;-25
2022/10/12 05:53:27;;;;;;;23.08;11.75;;;4.60;99.90;;;;;;5053605;28;20473;-24
2022/10/12 05:55:58;;;;;;;29.33;14.27;;;4.60;99.90;;;;;;5054840;28;20055;-24
2022/10/12 05:58:25;;;;;;;29.85;14.48;;;4.50;99.90;;;;;;5054723;28;20091;-25
2022/10/12 06:00:52;;;;;;;29.98;14.80;;;4.50;99.90;;;;;;5053513;28;20048;-24
2022/10/12 06:03:18;;;;;;;30.15;13.75;;;4.50;99.90;;;;;;5054020;28;20048;-24
2022/10/12 06:05:44;;;;;;;41.10;16.15;;;4.50;99.90;;;;;;5055505;28;20041;-24
2022/10/12 06:08:10;;;;;;;34.95;16.25;;;4.50;99.90;;;;;;5054626;28;20045;-24
2022/10/12 06:10:42;;;;;;;32.83;15.13;;;4.50;99.90;;;;;;5053320;28;20040;-24
2022/10/12 06:13:08;;;;;;;32.70;14.90;;;4.50;99.90;;;;;;5054477;28;20040;-25
2022/10/12 06:15:35;;;;;;;32.00;15.13;;;4.50;99.90;;;;;;5054501;28;20040;-25
2022/10/12 06:18:00;;;;;;;33.42;14.93;;;4.50;99.90;;;;;;5053192;28;20511;-24
2022/10/12 06:20:26;;;;;;;39.30;16.40;;;4.50;99.90;;;;;;5053222;28;20053;-24
2022/10/12 06:22:52;;;;;;;33.15;15.85;;;4.50;99.90;;;;;;5054641;28;20041;-24
2022/10/12 06:25:17;;;;;;;41.97;16.25;;;4.50;99.90;;;;;;5054336;28;20041;-25
2022/10/12 06:27:46;;;;;;;29.27;15.48;;;4.50;99.90;;;;;;5053983;28;20407;-24
2022/10/12 06:30:12;;;;;;;34.90;16.13;;;4.50;99.90;;;;;;5052945;28;20085;-26
2022/10/12 06:32:38;;;;;;;32.53;18.13;;;4.50;99.90;;;;;;5053125;28;20136;-25
2022/10/12 06:35:04;;;;;;;35.72;16.13;;;4.50;99.90;;;;;;5054160;28;20198;-24
2022/10/12 06:37:30;;;;;;;30.33;15.68;;;4.60;99.90;;;;;;5053923;28;20585;-24
2022/10/12 06:39:56;;;;;;;33.33;17.05;;;4.70;99.90;;;;;;5053081;28;20123;-24
2022/10/12 06:42:22;;;;;;;33.17;18.27;;;4.60;99.90;;;;;;5054010;28;20102;-24
2022/10/12 06:44:48;;;;;;;29.27;16.40;;;4.60;99.90;;;;;;5052865;28;20409;-23
2022/10/12 06:47:14;;;;;;;37.92;17.52;;;4.70;99.90;;;;;;5053579;28;20056;-24
2022/10/12 06:49:39;;;;;;;30.52;16.02;;;4.70;99.90;;;;;;5052772;28;20088;-24
2022/10/12 06:52:05;;;;;;;37.50;19.40;;;4.80;99.90;;;;;;5052653;28;20130;-23
2022/10/12 06:54:31;;;;;;;46.92;19.65;;;4.80;99.90;;;;;;5053817;28;20087;-23
2022/10/12 06:56:56;;;;;;;33.95;17.60;;;4.80;99.90;;;;;;5036921;28;20044;-23
2022/10/12 06:59:22;;;;;;;36.28;19.25;;;4.90;99.90;;;;;;5053686;28;20546;-23
2022/10/12 07:01:49;;;;;;;35.38;19.13;;;5.00;99.90;;;;;;5054541;28;20044;-24
2022/10/12 07:04:16;;;;;;;30.65;16.90;;;5.10;99.90;;;;;;5052709;28;20052;-24
2022/10/12 07:06:42;;;;;;;30.83;18.13;;;5.10;99.90;;;;;;5054171;28;20049;-24
2022/10/12 07:09:08;;;;;;;34.35;18.30;;;5.20;99.90;;;;;;5054181;28;20132;-24
2022/10/12 07:11:34;;;;;;;43.40;18.63;;;5.30;99.90;;;;;;5052533;28;20127;-24
2022/10/12 07:14:00;;;;;;;33.75;18.02;;;5.40;99.90;;;;;;5053843;28;20094;-24
2022/10/12 07:16:26;;;;;;;35.38;18.83;;;5.50;99.90;;;;;;5052430;28;20128;-25
2022/10/12 07:18:52;;;;;;;31.23;16.98;;;5.60;99.90;;;;;;5053483;28;20036;-25
2022/10/12 07:21:17;;;;;;;38.85;20.70;;;5.70;99.90;;;;;;5052561;28;20049;-24
2022/10/12 07:23:43;;;;;;;32.15;17.85;;;5.80;99.90;;;;;;5054014;28;20151;-24
2022/10/12 07:26:09;;;;;;;28.45;16.08;;;6.00;99.90;;;;;;5052297;28;20037;-24
2022/10/12 07:28:35;;;;;;;31.48;16.98;;;6.20;99.90;;;;;;5052282;28;20094;-24
2022/10/12 07:31:05;;;;;;;32.95;16.05;;;6.30;99.90;;;;;;5053466;28;20128;-24
2022/10/12 07:33:33;;;;;;;31.58;16.73;;;6.40;99.90;;;;;;5053396;28;20045;-24
2022/10/12 07:35:59;;;;;;;32.17;14.98;;;6.50;99.90;;;;;;5053364;28;20474;-24
2022/10/12 07:38:25;;;;;;;23.52;14.15;;;6.60;99.90;;;;;;5052792;28;20394;-24
2022/10/12 07:40:51;;;;;;;25.73;12.85;;;6.70;99.90;;;;;;5052454;28;20043;-25
2022/10/12 07:43:16;;;;;;;26.55;14.27;;;6.80;99.90;;;;;;5053353;28;20133;-24
2022/10/12 07:45:43;;;;;;;23.67;13.90;;;6.80;99.90;;;;;;5053332;28;20507;-24
2022/10/12 07:48:09;;;;;;;29.70;14.60;;;7.00;99.90;;;;;;5053274;28;20418;-25
2022/10/12 07:50:34;;;;;;;30.98;15.10;;;7.10;99.90;;;;;;5052365;28;20127;-24
2022/10/12 07:53:00;;;;;;;24.60;12.80;;;7.10;99.90;;;;;;5053169;28;20161;-24
2022/10/12 07:55:26;;;;;;;22.95;12.38;;;7.20;99.90;;;;;;5052236;28;20092;-24
2022/10/12 07:57:52;;;;;;;19.25;11.68;;;7.30;99.90;;;;;;5053120;28;20041;-24
2022/10/12 08:00:19;;;;;;;29.42;12.25;;;7.40;99.90;;;;;;5053169;28;20048;-25
2022/10/12 08:02:45;;;;;;;28.13;12.52;;;7.50;99.90;;;;;;5053948;28;20045;-25
2022/10/12 08:05:11;;;;;;;24.13;10.68;;;7.60;99.90;;;;;;5051885;28;20502;-25
2022/10/12 08:07:37;;;;;;;20.13;9.82;;;7.80;99.90;;;;;;5053046;28;20048;-25
2022/10/12 08:10:02;;;;;;;21.10;10.88;;;8.10;99.90;;;;;;5053052;28;20041;-25
2022/10/12 08:12:28;;;;;;;18.88;9.55;;;8.30;99.90;;;;;;5054650;28;20145;-25
2022/10/12 08:14:54;;;;;;;21.75;10.30;;;8.60;99.90;;;;;;5039632;28;20463;-25
2022/10/12 08:17:19;;;;;;;18.73;9.13;;;8.80;99.90;;;;;;5055745;28;20057;-25
2022/10/12 08:19:45;;;;;;;19.10;8.30;;;9.10;99.90;;;;;;5056368;28;20048;-25
2022/10/12 08:22:11;;;;;;;13.75;7.13;;;9.30;99.90;;;;;;5056500;28;20183;-26
2022/10/12 08:24:37;;;;;;;19.10;7.22;;;9.50;99.90;;;;;;5056605;28;20041;-26
2022/10/12 08:27:03;;;;;;;20.30;6.18;;;9.70;99.90;;;;;;5056420;28;20041;-25
2022/10/12 08:29:28;;;;;;;17.10;5.50;;;9.90;99.90;;;;;;5056533;28;20056;-26
2022/10/12 08:31:54;;;;;;;17.92;6.30;;;10.00;99.90;;;;;;5056698;28;20095;-26
2022/10/12 08:34:20;;;;;;;19.73;5.53;;;10.10;99.90;;;;;;5056453;28;20095;-26
2022/10/12 08:36:46;;;;;;;20.58;5.95;;;10.20;99.90;;;;;;5056637;28;20467;-27
2022/10/12 08:39:12;;;;;;;15.55;5.97;;;10.20;99.90;;;;;;5056302;28;20045;-26
2022/10/12 08:41:50;;;;;;;16.67;4.68;;;10.30;99.90;;;;;;5056221;28;20048;-26
2022/10/12 08:44:57;;;;;;;14.50;5.45;;;10.30;99.90;;;;;;5056258;28;20089;-26
2022/10/12 08:47:38;;;;;;;20.60;4.40;;;10.20;99.90;;;;;;5056476;28;20079;-27
2022/10/12 08:50:09;;;;;;;17.60;4.93;;;10.20;99.90;;;;;;5056395;28;20491;-27
2022/10/12 08:52:47;;;;;;;15.05;5.80;;;10.20;99.90;;;;;;5056838;28;20077;-26
2022/10/12 08:55:36;;;;;;;16.27;5.13;;;10.20;99.90;;;;;;5056039;28;20045;-26
2022/10/12 08:58:02;;;;;;;16.92;5.10;;;10.30;99.90;;;;;;5052734;28;20052;-26
2022/10/12 09:00:32;;;;;;;15.68;4.07;;;10.50;99.90;;;;;;5038376;28;20048;-26
2022/10/12 09:03:24;;;;;;;15.90;5.03;;;10.70;99.90;;;;;;5055884;28;20498;-27
2022/10/12 09:06:02;;;;;;;8.27;3.90;;;11.00;99.90;;;;;;5056491;28;20053;-27
2022/10/12 09:08:30;;;;;;;16.60;4.18;;;11.20;99.90;;;;;;5056412;28;20067;-27
2022/10/12 09:11:35;;;;;;;15.38;4.70;;;11.50;99.90;;;;;;5056088;28;20053;-26
2022/10/12 09:14:06;;;;;;;12.75;4.53;;;12.40;99.90;;;;;;5054185;28;20053;-27
2022/10/12 09:16:38;;;;;;;18.23;4.43;;;13.40;99.90;;;;;;5054390;28;20060;-27
2022/10/12 09:19:25;;;;;;;11.83;3.70;;;14.20;99.90;;;;;;5055618;28;20106;-27
2022/10/12 09:21:51;;;;;;;17.90;4.15;;;14.80;99.90;;;;;;5055592;28;20052;-27
2022/10/12 09:24:21;;;;;;;15.70;4.40;;;15.30;99.90;;;;;;5054640;28;20044;-27
2022/10/12 09:26:51;;;;;;;13.05;4.57;;;15.50;99.90;;;;;;5055728;28;20056;-27
2022/10/12 09:29:28;;;;;;;10.27;3.08;;;15.80;99.90;;;;;;5055422;28;20119;-27
2022/10/12 09:32:25;;;;;;;16.05;4.63;;;16.00;99.90;;;;;;5055331;28;20106;-27
2022/10/12 09:34:51;;;;;;;10.93;4.07;;;;;;;;;;5056231;28;20048;-27
2022/10/12 09:37:27;;;;;;;14.73;4.93;;;15.80;1.00;;;;;;5054332;28;20045;-27
2022/10/12 09:39:54;;;;;;;13.70;4.25;;;15.60;99.90;;;;;;5055211;28;20051;-27
2022/10/12 09:42:20;;;;;;;13.98;3.50;;;15.70;99.90;;;;;;5055146;28;20041;-27
2022/10/12 09:44:57;;;;;;;10.15;4.35;;;16.00;99.90;;;;;;5054952;28;20128;-28
2022/10/12 09:47:30;;;;;;;13.27;3.90;;;16.10;1.00;;;;;;5055660;28;20055;-29
2022/10/12 09:50:01;;;;;;;13.05;4.43;;;16.20;99.90;;;;;;5055697;28;20045;-27
2022/10/12 09:52:35;;;;;;;12.80;3.33;;;16.10;99.90;;;;;;5054969;28;20037;-27
2022/10/12 09:55:13;;;;;;;15.02;4.65;;;16.30;37.30;;;;;;5054914;28;20056;-27
2022/10/12 09:57:40;;;;;;;11.85;3.90;;;16.50;6.30;;;;;;5054892;28;20483;-28
2022/10/12 10:00:22;;;;;;;15.43;4.38;;;16.50;1.00;;;;;;5054861;28;20049;-28
2022/10/12 10:02:49;;;;;;;12.77;4.53;;;16.80;99.90;;;;;;5054680;28;20131;-28
2022/10/12 10:05:41;;;;;;;12.07;3.97;;;16.40;99.90;;;;;;5054033;28;20042;-28
2022/10/12 10:08:13;;;;;;;12.48;4.40;;;16.20;99.90;;;;;;5054378;28;20053;-28
2022/10/12 10:10:54;;;;;;;11.02;3.90;;;16.30;99.90;;;;;;5055165;28;20383;-28
2022/10/12 10:13:21;;;;;;;11.88;3.45;;;16.20;99.90;;;;;;5053646;28;20053;-27
2022/10/12 10:15:50;;;;;;;10.57;3.88;;;16.40;1.00;;;;;;5053343;28;20057;-28
2022/10/12 10:18:31;;;;;;;14.23;4.03;;;16.50;99.90;;;;;;5054464;28;20041;-28
2022/10/12 10:20:58;;;;;;;16.83;4.28;;;16.50;99.90;;;;;;5054455;28;20044;-29
2022/10/12 10:23:36;;;;;;;16.92;3.90;;;16.70;99.90;;;;;;5054357;28;20044;-29
2022/10/12 10:26:09;;;;;;;12.55;4.22;;;16.80;99.90;;;;;;5054387;28;20131;-28
2022/10/12 10:28:40;;;;;;;14.55;3.63;;;16.90;44.00;;;;;;5053323;28;20041;-28
2022/10/12 10:31:21;;;;;;;11.73;4.72;;;17.10;99.90;;;;;;5054101;28;20057;-28
2022/10/12 10:34:14;;;;;;;9.75;2.85;;;17.60;82.40;;;;;;5054270;28;20143;-29
2022/10/12 10:36:58;;;;;;;14.05;2.88;;;18.00;99.90;;;;;;5054021;28;20493;-28
2022/10/12 10:39:52;;;;;;;10.40;2.67;;;18.30;37.70;;;;;;5053941;28;20399;-30
2022/10/12 10:42:36;;;;;;;;;;;18.50;1.00;;;;;;5054283;28;20043;-28
2022/10/12 10:45:40;;;;;;;12.10;2.83;;;18.10;99.90;;;;;;5052672;28;20413;-28
2022/10/12 10:48:26;;;;;;;9.15;2.40;;;18.40;99.90;;;;;;5054252;28;20063;-29
2022/10/12 10:51:03;;;;;;;9.18;2.65;;;18.40;99.90;;;;;;5053659;28;20112;-29
2022/10/12 10:53:41;;;;;;;11.30;2.83;;;18.60;99.90;;;;;;5053881;28;20049;-28
2022/10/12 10:56:15;;;;;;;12.40;2.65;;;19.00;99.90;;;;;;5052933;28;20055;-30
2022/10/12 10:58:56;;;;;;;16.23;3.05;;;18.90;99.90;;;;;;5053745;28;20084;-29
2022/10/12 11:01:40;;;;;;;13.68;2.58;;;19.30;99.90;;;;;;5053799;28;20051;-28
2022/10/12 11:04:13;;;;;;;11.65;2.35;;;19.60;99.90;;;;;;5053765;28;20088;-28
2022/10/12 11:06:41;;;;;;;12.10;2.90;;;19.70;99.90;;;;;;5054036;28;20071;-28
2022/10/12 11:09:12;;;;;;;8.90;2.70;;;;;;;;;;5036115;28;20053;-28
2022/10/12 11:11:40;;;;;;;10.50;2.60;;;20.40;99.90;;;;;;5052340;28;20045;-28
2022/10/12 11:14:18;;;;;;;9.25;2.50;;;20.50;99.90;;;;;;5052996;28;20045;-28
2022/10/12 11:17:02;;;;;;;10.02;2.70;;;20.40;20.30;;;;;;5036110;28;20384;-28
2022/10/12 11:19:49;;;;;;;10.60;2.70;;;20.60;35.30;;;;;;5053611;28;20505;-28
2022/10/12 11:22:24;;;;;;;10.68;2.30;;;19.90;15.30;;;;;;5052892;28;20093;-28
2022/10/12 11:25:27;;;;;;;8.65;2.20;;;19.80;78.40;;;;;;5053439;28;20060;-28
2022/10/12 11:27:53;;;;;;;11.52;2.63;;;19.80;7.20;;;;;;5048484;28;20053;-28
2022/10/12 11:30:22;;;;;;;10.13;3.00;;;19.80;99.90;;;;;;5053575;28;20044;-28
2022/10/12 11:33:01;;;;;;;10.93;2.47;;;19.80;55.10;;;;;;5053403;28;20044;-28
2022/10/12 11:35:49;;;;;;;10.48;2.50;;;19.90;32.60;;;;;;5053486;28;20048;-28
2022/10/12 11:38:41;;;;;;;10.88;2.33;;;20.00;1.00;;;;;;5054182;28;20102;-28
2022/10/12 11:41:44;;;;;;;11.30;2.70;;;19.00;1.00;;;;;;5054226;28;20433;-28
2022/10/12 11:44:37;;;;;;;13.13;2.83;;;19.10;1.00;;;;;;5061870;28;20052;-28
2022/10/12 11:47:12;;;;;;;14.38;2.55;;;19.10;11.90;;;;;;5062387;28;20085;-29
2022/10/12 11:49:54;;;;;;;10.35;2.15;;;19.50;97.40;;;;;;5076388;28;20048;-29
2022/10/12 11:52:21;;;;;;;11.13;2.72;;;19.60;1.00;;;;;;5076440;28;20062;-29
2022/10/12 11:55:26;;;;;;;8.73;2.15;;;19.60;1.00;;;;;;5077191;28;20044;-28
2022/10/12 11:57:54;;;;;;;14.30;2.67;;;19.80;1.00;;;;;;5077086;28;20050;-30
2022/10/12 12:00:29;;;;;;;12.30;2.47;;;19.70;1.00;;;;;;5077087;28;20049;-29
2022/10/12 12:03:19;;;;;;;14.43;2.30;;;19.50;1.00;;;;;;5077922;28;20040;-29
2022/10/12 12:05:44;;;;;;;9.25;2.70;;;19.50;1.00;;;;;;5077056;28;20059;-28
2022/10/12 12:08:38;;;;;;;11.15;2.30;;;19.60;14.70;;;;;;5076961;28;20056;-29
2022/10/12 12:11:26;;;;;;;13.10;2.78;;;19.70;1.00;;;;;;5077197;28;20051;-28
2022/10/12 12:14:24;;;;;;;11.48;2.03;;;19.90;1.00;;;;;;5076156;28;20512;-29
2022/10/12 12:17:10;;;;;;;12.82;2.78;;;20.00;1.00;;;;;;5067763;28;20079;-28
2022/10/12 12:19:38;;;;;;;10.30;2.08;;;20.00;26.20;;;;;;5076766;28;20057;-28
2022/10/12 12:22:12;;;;;;;11.90;2.53;;;20.00;1.00;;;;;;5075486;28;20043;-29
2022/10/12 12:24:39;;;;;;;12.88;2.47;;;19.70;1.00;;;;;;5076664;28;20040;-28
2022/10/12 12:27:28;;;;;;;9.90;2.25;;;19.30;1.00;;;;;;5077438;28;20125;-29
2022/10/12 12:29:55;;;;;;;8.25;1.88;;;19.50;1.00;;;;;;5076285;28;20482;-28
2022/10/12 12:32:22;;;;;;;9.07;2.25;;;19.70;1.00;;;;;;5076652;28;20124;-29
2022/10/12 12:34:57;;;;;;;11.15;2.50;;;19.90;1.00;;;;;;5072249;28;20041;-28
2022/10/12 12:37:27;;;;;;;7.85;2.28;;;20.10;1.00;;;;;;5066491;28;20046;-29
2022/10/12 12:39:58;;;;;;;9.02;2.15;;;20.20;1.00;;;;;;5072239;28;20115;-29
2022/10/12 12:42:31;;;;;;;8.82;2.03;;;19.90;1.00;;;;;;5066083;28;20067;-28
2022/10/12 12:45:29;;;;;;;8.20;1.83;;;20.00;1.00;;;;;;5063494;28;20049;-29
2022/10/12 12:47:55;;;;;;;9.05;2.17;;;20.20;1.00;;;;;;5067897;28;20110;-29
2022/10/12 12:50:36;;;;;;;9.10;2.60;;;20.10;1.00;;;;;;5048238;28;20040;-28
2022/10/12 12:53:16;;;;;;;7.72;1.95;;;19.70;1.00;;;;;;5072117;28;20120;-29
2022/10/12 12:56:01;;;;;;;7.47;1.98;;;19.10;1.00;;;;;;5070812;28;20056;-28
2022/10/12 12:58:47;;;;;;;7.22;1.45;;;19.30;1.00;;;;;;5064858;28;20394;-28
2022/10/12 13:01:39;;;;;;;7.10;1.70;;;19.50;1.00;;;;;;5075679;28;20485;-29
2022/10/12 13:04:29;;;;;;;7.88;1.65;;;19.60;1.00;;;;;;5076460;28;20048;-29
2022/10/12 13:07:16;;;;;;;9.23;2.13;;;19.80;1.00;;;;;;5059938;28;20045;-29